Time;durP1;ratioP1;P1;durP2;ratioP2;P2;SDS_P1;SDS_P2;PMS_P1;PMS_P2;Temp;Humidity;BMP_temperature;BMP_pressure;BME280_temperature;BME280_humidity;BME280_pressure;Samples;Min_cycle;Max_cycle;Signal;HPM_P1;HPM_P2
2022/09/14 00:00:05;;;;;;;11.88;3.92;;;18.70;99.90;;;18.12;100.00;99982.06;5275768;22;20002;-74
2022/09/14 00:02:07;;;;;;;7.73;3.00;;;18.70;99.90;;;18.16;100.00;99991.22;5276119;22;20495;-74
2022/09/14 00:04:15;;;;;;;9.35;3.17;;;18.70;99.90;;;18.03;100.00;99976.22;5248455;22;20007;-74
2022/09/14 00:06:16;;;;;;;14.82;2.90;;;18.70;99.90;;;18.06;100.00;99986.44;5222407;22;20421;-74
2022/09/14 00:08:17;;;;;;;8.35;2.63;;;18.60;99.90;;;17.94;100.00;99974.88;5222397;22;20070;-74
2022/09/14 00:10:18;;;;;;;13.85;3.25;;;18.60;99.90;;;17.99;100.00;99990.22;5248712;22;20002;-75
2022/09/14 00:12:19;;;;;;;8.18;2.20;;;18.60;99.90;;;17.98;100.00;99994.72;5248560;22;20007;-74
2022/09/14 00:14:20;;;;;;;7.28;2.35;;;18.60;99.90;;;17.97;100.00;99978.94;5248087;22;20052;-74
2022/09/14 00:16:32;;;;;;;8.13;2.45;;;18.60;99.90;;;18.11;100.00;99993.75;5274734;22;19999;-74
2022/09/14 00:18:34;;;;;;;8.63;2.28;;;18.60;99.90;;;17.94;100.00;99960.72;5276329;22;20002;-74
2022/09/14 00:20:36;;;;;;;11.38;3.80;;;18.60;99.90;;;17.98;100.00;99961.91;5276142;22;20012;-74
2022/09/14 00:22:37;;;;;;;13.18;4.13;;;18.60;99.90;;;18.10;100.00;99973.44;5250094;22;20010;-74
2022/09/14 00:24:38;;;;;;;11.93;3.95;;;18.60;99.90;;;18.02;100.00;99952.41;5277835;22;20006;-74
2022/09/14 00:26:39;;;;;;;8.88;2.83;;;18.70;99.90;;;18.13;100.00;99967.66;5277707;22;20029;-74
2022/09/14 00:28:47;;;;;;;11.15;3.35;;;18.70;99.90;;;18.29;100.00;100000.94;5249844;22;20060;-74
2022/09/14 00:30:47;;;;;;;15.18;3.13;;;18.70;99.90;;;18.13;100.00;99987.16;5250488;22;20038;-74
2022/09/14 00:32:50;;;;;;;11.13;2.90;;;18.80;99.90;;;18.24;100.00;100004.31;5277925;22;20060;-74
2022/09/14 00:34:51;;;;;;;9.05;3.10;;;18.80;99.90;;;18.33;100.00;100018.97;5224635;22;20003;-74
2022/09/14 00:36:52;;;;;;;14.88;3.88;;;18.90;99.90;;;18.32;100.00;99997.84;5250068;22;20014;-74
2022/09/14 00:38:55;;;;;;;9.93;3.13;;;18.90;99.90;;;18.40;100.00;100006.34;5278138;22;20003;-74
2022/09/14 00:40:58;;;;;;;14.20;3.20;;;19.00;99.90;;;18.55;100.00;100022.84;5250302;22;20014;-74
2022/09/14 00:43:01;;;;;;;9.40;2.97;;;19.00;99.90;;;18.37;100.00;99985.44;5277834;22;19998;-74
2022/09/14 00:45:14;;;;;;;15.65;2.92;;;19.10;99.90;;;18.64;100.00;100016.13;5277270;22;20005;-74
2022/09/14 00:47:16;;;;;;;14.50;3.80;;;19.10;99.90;;;18.63;100.00;100009.19;5224249;22;20007;-74
2022/09/14 00:49:38;;;;;;;17.48;4.05;;;19.20;99.90;;;18.62;100.00;99988.84;5223739;22;20042;-74
2022/09/14 00:52:11;;;;;;;9.25;2.85;;;19.20;99.90;;;18.70;100.00;100001.06;5250629;22;20038;-74
2022/09/14 00:54:12;;;;;;;13.70;3.30;;;19.20;99.90;;;18.65;100.00;100000.94;5227655;22;20034;-74
2022/09/14 00:56:14;;;;;;;12.95;3.03;;;19.20;99.90;;;18.48;100.00;99978.53;5277796;22;20003;-74
2022/09/14 00:58:15;;;;;;;8.85;2.90;;;19.20;99.90;;;18.63;100.00;100001.16;5249843;22;19999;-74
2022/09/14 01:00:21;;;;;;;13.73;3.35;;;19.20;99.90;;;18.57;100.00;99999.41;5277506;22;20005;-74
2022/09/14 01:02:24;;;;;;;10.95;2.83;;;19.10;99.90;;;18.44;100.00;99982.69;5277360;22;20003;-74
2022/09/14 01:04:25;;;;;;;9.70;3.10;;;19.10;99.90;;;18.49;100.00;99998.88;5277475;22;20427;-74
2022/09/14 01:06:44;;;;;;;9.75;3.10;;;19.00;99.90;;;18.42;100.00;99988.25;5277433;22;20002;-74
2022/09/14 01:09:00;;;;;;;9.18;3.13;;;18.90;99.90;;;18.37;100.00;99989.97;5225588;22;20451;-74
2022/09/14 01:11:43;;;;;;;13.85;3.30;;;18.90;99.90;;;18.10;100.00;99968.94;5277565;22;20017;-74
2022/09/14 01:14:19;;;;;;;11.85;3.28;;;18.80;99.90;;;18.23;100.00;99994.66;5213598;22;20447;-74
2022/09/14 01:16:56;;;;;;;12.60;3.58;;;18.80;99.90;;;18.07;100.00;99993.38;5277504;22;19999;-74
2022/09/14 01:19:03;;;;;;;5.68;2.53;;;18.70;99.90;;;17.97;100.00;99982.44;5249379;22;20447;-74
2022/09/14 01:21:13;;;;;;;15.13;3.17;;;18.60;99.90;;;17.99;100.00;99974.19;5250359;22;20026;-74
2022/09/14 01:23:41;;;;;;;6.82;2.65;;;18.60;99.90;;;18.06;100.00;99999.78;5249914;22;20003;-74
2022/09/14 01:26:12;;;;;;;7.28;2.60;;;18.60;99.90;;;18.03;100.00;99994.91;5277300;22;20058;-74
2022/09/14 01:28:33;;;;;;;11.98;3.20;;;18.50;99.90;;;17.90;100.00;99975.53;5249643;22;20465;-74
2022/09/14 01:30:37;;;;;;;10.95;3.45;;;18.50;99.90;;;18.02;100.00;99989.75;5249166;22;20434;-74
2022/09/14 01:33:08;;;;;;;9.68;3.22;;;18.50;99.90;;;17.94;100.00;99982.88;5275699;22;20013;-74
2022/09/14 01:35:36;;;;;;;11.93;3.45;;;18.60;99.90;;;17.87;100.00;99973.31;5277254;22;20339;-74
2022/09/14 01:37:56;;;;;;;7.20;2.83;;;18.60;99.90;;;17.89;100.00;99979.25;5250259;22;20042;-74
2022/09/14 01:40:21;;;;;;;10.05;3.08;;;18.50;99.90;;;17.83;100.00;99974.81;5249194;22;20021;-74
2022/09/14 01:42:26;;;;;;;12.30;3.10;;;18.50;99.90;;;17.92;100.00;99992.16;5253804;22;20017;-74
2022/09/14 01:44:42;;;;;;;12.00;3.50;;;18.50;99.90;;;17.81;100.00;99979.53;5223490;22;20015;-74
2022/09/14 01:46:49;;;;;;;9.80;3.03;;;18.40;99.90;;;17.88;100.00;99993.63;5249845;22;20003;-74
2022/09/14 01:48:54;;;;;;;16.70;3.33;;;18.40;99.90;;;17.88;100.00;99993.63;5250038;22;20007;-74
2022/09/14 01:50:59;;;;;;;8.15;3.13;;;18.40;99.90;;;17.92;100.00;100000.94;5250139;22;20050;-74
2022/09/14 01:53:21;;;;;;;10.60;3.40;;;18.40;99.90;;;17.86;100.00;99995.72;5249509;22;19999;-74
2022/09/14 01:55:32;;;;;;;10.32;2.95;;;18.40;99.90;;;17.69;100.00;99969.59;5277012;22;19999;-74
2022/09/14 01:57:57;;;;;;;9.15;3.15;;;18.40;99.90;;;17.74;100.00;99976.13;5224312;22;20086;-74
2022/09/14 02:00:07;;;;;;;13.45;2.78;;;18.30;99.90;;;17.82;100.00;99995.31;5252749;22;20025;-74
2022/09/14 02:02:39;;;;;;;8.90;2.15;;;18.30;99.90;;;17.63;100.00;99965.13;5250036;22;20077;-74
2022/09/14 02:05:08;;;;;;;7.88;2.45;;;18.30;99.90;;;17.60;100.00;99967.44;5276961;22;20334;-74
2022/09/14 04:26:51;;;;;;;;;;;;;;;;;;;;;
2022/09/14 07:23:41;;;;;;;4.13;1.42;;;19.40;99.90;;;19.00;100.00;99987.66;4951831;24;20016;-74
2022/09/14 07:25:42;;;;;;;4.93;1.30;;;19.60;99.90;;;18.96;100.00;99965.13;4992888;23;20546;-74
2022/09/14 07:27:43;;;;;;;17.23;1.98;;;19.60;99.90;;;19.06;100.00;99979.56;5106578;23;20012;-74
2022/09/14 07:29:44;;;;;;;7.32;1.67;;;19.70;99.90;;;19.25;100.00;100004.34;5149818;22;20009;-74
2022/09/14 07:31:52;;;;;;;6.15;2.22;;;19.70;99.90;;;19.25;100.00;99986.47;5222039;22;20007;-74
2022/09/14 07:33:57;;;;;;;6.90;1.30;;;19.80;99.90;;;19.25;100.00;99966.91;5222725;22;20017;-74
2022/09/14 07:36:07;;;;;;;5.60;1.48;;;19.90;99.90;;;19.40;100.00;99978.00;5222770;22;20003;-74
2022/09/14 07:38:08;;;;;;;6.25;1.42;;;20.00;99.90;;;19.43;100.00;99974.88;5249327;22;20089;-74
2022/09/14 07:40:09;;;;;;;7.35;1.95;;;20.00;99.90;;;19.45;100.00;99975.44;5248648;22;20003;-75
2022/09/14 07:42:10;;;;;;;5.85;1.83;;;20.00;99.90;;;19.48;100.00;99974.16;5248701;22;20007;-74
2022/09/14 07:44:16;;;;;;;9.27;2.03;;;20.00;99.90;;;19.53;100.00;99985.00;5275692;22;20499;-74
2022/09/14 07:46:18;;;;;;;7.75;1.92;;;20.10;99.90;;;19.57;100.00;99986.97;5276210;22;20005;-74
2022/09/14 07:48:19;;;;;;;5.28;1.55;;;20.10;99.90;;;19.75;100.00;100002.09;5276108;22;20342;-74
2022/09/14 07:50:20;;;;;;;9.52;1.77;;;20.20;99.90;;;19.70;100.00;99989.41;5276090;22;20009;-75
2022/09/14 07:52:21;;;;;;;8.60;2.00;;;20.20;99.90;;;19.90;100.00;100010.44;5222421;22;20086;-75
2022/09/14 07:54:22;;;;;;;5.40;1.90;;;20.30;99.90;;;19.91;100.00;99992.53;5248766;22;20002;-74
2022/09/14 07:56:24;;;;;;;7.47;1.63;;;20.40;99.90;;;20.22;100.00;100017.03;5248406;22;20424;-74
2022/09/14 07:58:26;;;;;;;7.00;1.58;;;20.60;99.90;;;20.31;100.00;99996.91;5248229;22;20032;-74
2022/09/14 08:00:27;;;;;;;9.73;1.88;;;20.70;99.90;;;20.64;100.00;100022.22;5222707;22;20007;-74
2022/09/14 08:02:29;;;;;;;7.30;1.58;;;20.90;99.90;;;20.59;100.00;100004.16;5248795;22;20003;-74
2022/09/14 08:04:30;;;;;;;2.78;0.85;;;21.10;99.90;;;20.76;100.00;100002.31;5275988;22;20012;-74
2022/09/14 08:06:31;;;;;;;8.75;1.52;;;21.30;99.90;;;21.07;100.00;100032.38;5275977;22;20002;-74
2022/09/14 08:08:38;;;;;;;10.15;1.75;;;21.40;99.90;;;21.00;100.00;100004.91;5248451;22;20523;-74
2022/09/14 08:10:39;;;;;;;21.20;3.35;;;21.50;99.90;;;21.24;100.00;100017.13;5248028;22;20010;-74
2022/09/14 08:12:40;;;;;;;5.97;1.92;;;21.70;99.90;;;21.34;100.00;100007.41;5274137;22;20006;-74
2022/09/14 08:14:41;;;;;;;8.85;2.00;;;21.90;99.90;;;21.49;100.00;100015.69;5276057;22;19999;-75
2022/09/14 08:16:42;;;;;;;7.53;1.67;;;22.00;99.90;;;21.58;100.00;100013.41;5276218;22;19998;-74
2022/09/14 08:18:43;;;;;;;6.75;1.30;;;22.10;99.90;;;21.42;100.00;100015.03;5276076;22;20025;-74
2022/09/14 08:20:44;;;;;;;9.23;2.08;;;22.10;99.90;;;21.53;100.00;100005.28;5275889;22;19998;-74
2022/09/14 08:22:45;;;;;;;8.35;1.40;;;22.20;99.90;;;21.71;100.00;100012.25;5248972;22;20003;-74
2022/09/14 08:24:46;;;;;;;9.60;1.88;;;22.30;99.90;;;21.78;100.00;100011.00;5275861;22;20454;-74
2022/09/14 08:26:48;;;;;;;5.88;1.70;;;22.40;99.90;;;21.82;100.00;100014.84;5276218;22;20003;-74
2022/09/14 08:28:50;;;;;;;10.73;1.50;;;22.50;99.90;;;21.90;100.00;100013.63;5248061;22;20014;-75
2022/09/14 08:30:51;;;;;;;8.43;1.80;;;22.60;99.90;;;22.17;100.00;100033.34;5275870;22;20009;-75
2022/09/14 08:32:52;;;;;;;7.50;1.42;;;22.70;99.90;;;22.10;100.00;100029.22;5275903;22;20012;-74
2022/09/14 08:34:53;;;;;;;7.10;1.48;;;22.70;99.90;;;22.07;100.00;100035.09;5222399;22;20062;-74
2022/09/14 08:36:54;;;;;;;4.95;1.10;;;22.70;99.90;;;22.21;100.00;100029.09;5275874;22;20335;-74
2022/09/14 08:38:55;;;;;;;6.68;2.08;;;22.80;99.90;;;22.39;100.00;100038.72;5275677;22;20014;-74
2022/09/14 08:41:04;;;;;;;6.10;1.10;;;22.90;99.90;;;22.47;100.00;100032.91;5275890;22;20006;-75
2022/09/14 08:43:05;;;;;;;5.47;1.27;;;23.00;99.90;;;22.51;100.00;100023.28;5250532;22;20319;-75
2022/09/14 08:45:10;;;;;;;5.45;1.17;;;23.20;99.90;;;22.70;100.00;100043.41;5277751;22;20010;-74
2022/09/14 08:47:33;;;;;;;5.40;1.60;;;23.20;99.90;;;22.72;100.00;100030.56;5249850;22;20010;-75
2022/09/14 08:50:01;;;;;;;3.08;0.90;;;23.30;99.90;;;22.98;100.00;100051.25;5250500;22;20003;-74
2022/09/14 08:52:02;;;;;;;3.40;1.58;;;23.50;99.90;;;23.07;100.00;100044.34;5249458;22;20007;-74
2022/09/14 08:54:03;;;;;;;7.85;1.08;;;23.50;99.90;;;23.18;100.00;100033.69;5277535;22;19998;-75
2022/09/14 08:56:41;;;;;;;5.03;1.45;;;23.70;99.90;;;23.24;99.43;100030.78;5249804;22;20055;-74
2022/09/14 08:58:53;;;;;;;8.55;1.55;;;23.80;99.90;;;23.48;99.02;100052.81;5161063;22;20343;-74
2022/09/14 09:01:27;;;;;;;4.43;1.10;;;23.90;99.90;;;23.49;97.44;100040.97;5277422;22;20422;-75
2022/09/14 09:04:03;;;;;;;7.97;1.85;;;24.00;99.90;;;23.43;95.88;100028.56;5277524;22;20010;-75
2022/09/14 09:06:58;;;;;;;6.90;1.65;;;24.10;99.90;;;23.60;96.11;100048.06;5193904;22;20007;-74
2022/09/14 09:09:17;;;;;;;6.25;1.00;;;24.20;99.90;;;23.37;95.53;100032.22;5227145;22;20343;-74
2022/09/14 09:11:23;;;;;;;6.25;1.60;;;24.10;99.90;;;23.44;95.91;100022.91;5250212;22;20007;-74
2022/09/14 09:13:29;;;;;;;4.80;1.20;;;24.10;99.90;;;23.62;95.64;100024.41;5249738;22;19999;-74
2022/09/14 09:15:50;;;;;;;6.90;1.45;;;24.30;99.90;;;23.73;94.66;100031.47;5250210;22;20005;-75
2022/09/14 09:18:01;;;;;;;4.80;1.00;;;24.30;99.90;;;23.94;93.70;100038.63;5249618;22;20085;-75
2022/09/14 09:20:28;;;;;;;7.10;1.95;;;24.40;99.90;;;23.97;92.27;100035.41;5275851;22;20005;-74
2022/09/14 09:23:06;;;;;;;4.45;1.00;;;24.60;99.90;;;23.89;91.18;100032.38;5250478;22;20003;-74
2022/09/14 09:25:22;;;;;;;7.00;1.40;;;24.60;99.90;;;23.95;92.92;100045.63;5235797;22;20081;-74
2022/09/14 09:27:24;;;;;;;5.82;1.55;;;24.70;99.90;;;24.05;91.66;100042.97;5248782;22;20007;-75
2022/09/14 09:29:25;;;;;;;7.70;2.53;;;24.80;99.90;;;24.14;91.36;100035.25;5249347;22;20006;-74
2022/09/14 09:31:38;;;;;;;7.88;1.58;;;24.80;99.90;;;24.38;89.87;100044.53;5277110;22;20006;-74
2022/09/14 09:33:39;;;;;;;4.72;1.20;;;24.90;99.90;;;24.62;89.52;100052.97;5250505;22;20490;-74
2022/09/14 09:35:40;;;;;;;5.80;1.35;;;25.10;99.90;;;24.63;87.87;100051.91;5223581;22;20010;-75
2022/09/14 09:37:41;;;;;;;5.03;0.90;;;25.20;99.90;;;24.72;88.33;100050.31;5249474;22;20060;-75
2022/09/14 09:39:43;;;;;;;7.07;1.17;;;25.30;99.90;;;24.72;88.52;100037.66;5249652;22;20032;-74
2022/09/14 09:42:12;;;;;;;5.10;1.30;;;25.40;99.90;;;24.21;88.24;100060.09;5251244;22;20013;-74
2022/09/14 09:44:13;;;;;;;7.68;0.90;;;25.30;99.90;;;24.08;90.90;100049.72;5249441;22;20003;-75
2022/09/14 09:46:14;;;;;;;7.40;1.33;;;25.20;99.90;;;24.22;92.09;100049.03;5251263;22;20002;-74
2022/09/14 09:48:19;;;;;;;4.07;1.80;;;25.00;99.90;;;24.63;89.90;100076.19;5249661;22;20504;-75
2022/09/14 09:50:23;;;;;;;7.00;1.50;;;25.00;99.90;;;24.75;88.75;100068.66;5250858;22;20011;-74
2022/09/14 09:52:24;;;;;;;4.55;1.98;;;25.20;99.90;;;24.43;90.97;100070.72;5249470;22;20010;-74
2022/09/14 09:54:31;;;;;;;7.85;2.25;;;25.20;99.90;;;24.15;91.48;100067.34;5250420;22;19999;-75
2022/09/14 09:56:46;;;;;;;5.00;1.20;;;25.20;99.90;;;24.10;93.17;100067.28;5249393;22;20003;-75
2022/09/14 09:58:50;;;;;;;5.03;1.75;;;25.10;99.90;;;24.49;91.08;100085.84;5250528;22;20002;-74
2022/09/14 10:01:00;;;;;;;4.45;1.30;;;25.10;99.90;;;24.66;88.96;100067.56;5223830;22;20034;-74
2022/09/14 10:03:28;;;;;;;7.57;1.95;;;25.20;99.90;;;24.82;86.20;100068.47;5224263;22;20451;-74
2022/09/14 10:05:32;;;;;;;4.35;1.50;;;25.40;99.90;;;24.83;86.85;100062.78;5249591;22;20002;-74
2022/09/14 10:07:42;;;;;;;6.57;2.38;;;25.50;99.90;;;24.52;85.99;100082.63;5223975;22;20011;-74
2022/09/14 10:09:55;;;;;;;10.48;1.73;;;25.50;99.90;;;24.50;85.81;100080.16;5251218;22;20030;-75
2022/09/14 10:12:02;;;;;;;7.32;2.05;;;25.40;99.90;;;24.52;86.37;100064.53;5249335;22;20003;-74
2022/09/14 10:14:19;;;;;;;7.10;2.30;;;25.40;99.90;;;24.69;85.06;100072.44;5250734;22;20002;-74
2022/09/14 10:16:20;;;;;;;12.90;2.72;;;25.50;99.90;;;24.76;84.01;100086.47;5249289;22;19998;-75
2022/09/14 10:18:29;;;;;;;5.32;1.73;;;25.50;99.90;;;24.97;83.03;100079.28;5251066;22;20049;-74
2022/09/14 10:20:30;;;;;;;5.57;1.60;;;25.60;99.90;;;25.05;83.46;100079.56;5249167;22;20454;-74
2022/09/14 10:22:34;;;;;;;4.80;1.55;;;25.70;99.90;;;25.16;82.68;100083.91;5250962;22;20435;-74
2022/09/14 10:24:36;;;;;;;5.15;1.70;;;25.80;99.90;;;25.06;82.78;100078.47;5249419;22;20009;-74
2022/09/14 10:26:37;;;;;;;9.43;1.75;;;25.80;99.90;;;25.13;81.41;100083.63;5249198;22;20010;-74
2022/09/14 10:28:47;;;;;;;41.85;39.05;;;25.90;99.90;;;25.15;81.40;100090.38;5248662;22;20007;-74
2022/09/14 10:31:14;;;;;;;5.05;1.63;;;25.90;99.90;;;25.15;81.86;100087.69;5249080;22;20462;-74
2022/09/14 10:33:16;;;;;;;6.43;2.42;;;25.90;99.90;;;25.14;80.16;100091.47;5249199;22;20179;-75
2022/09/14 10:35:19;;;;;;;3.92;1.63;;;25.90;99.90;;;24.74;82.28;100104.81;5249336;22;20059;-74
2022/09/14 10:38:05;;;;;;;4.47;2.13;;;25.70;99.90;;;24.79;81.41;100112.91;5248906;22;20007;-74
2022/09/14 10:40:27;;;;;;;4.93;1.40;;;25.60;99.90;;;24.97;81.03;100088.16;5251000;22;20323;-74
2022/09/14 10:42:39;;;;;;;7.45;2.33;;;25.70;99.90;;;25.15;80.23;100076.88;5249270;22;20342;-74
2022/09/14 10:45:27;;;;;;;4.60;1.77;;;25.80;99.90;;;25.34;78.67;100101.47;5249007;22;20049;-74
2022/09/14 10:47:55;;;;;;;7.22;2.17;;;26.00;99.90;;;25.51;77.83;100120.97;5217862;22;20504;-75
2022/09/14 10:50:12;;;;;;;4.57;1.38;;;26.20;99.90;;;25.47;76.98;100098.25;5250500;22;20444;-74
2022/09/14 10:52:41;;;;;;;4.90;1.48;;;26.20;99.90;;;25.73;77.60;100110.72;5250405;22;20010;-75
2022/09/14 10:55:30;;;;;;;5.57;2.08;;;26.30;99.90;;;25.53;74.88;100120.72;5250465;22;20426;-75
2022/09/14 10:57:43;;;;;;;4.95;1.65;;;26.40;99.90;;;25.64;75.96;100111.53;5249362;22;20002;-75
2022/09/14 11:00:00;;;;;;;4.75;1.50;;;26.40;99.90;;;25.73;75.46;100093.69;5250432;22;20007;-75
2022/09/14 11:02:36;;;;;;;4.78;1.65;;;26.40;99.90;;;25.75;73.82;100124.75;5249108;22;20010;-74
2022/09/14 11:05:01;;;;;;;5.50;1.90;;;26.50;99.90;;;25.59;75.46;100116.94;5250142;22;20003;-75
2022/09/14 11:07:41;;;;;;;7.82;1.75;;;26.40;99.90;;;25.45;74.23;100092.31;5250495;22;20408;-75
2022/09/14 11:09:48;;;;;;;5.75;1.80;;;26.40;99.90;;;25.91;73.48;100109.34;5249019;22;20334;-74
2022/09/14 11:12:38;;;;;;;3.70;1.80;;;26.50;99.90;;;25.63;73.79;100097.19;5222946;22;20105;-75
2022/09/14 11:15:14;;;;;;;4.63;1.73;;;26.40;99.90;;;25.77;73.07;100119.09;5248357;22;20011;-75
2022/09/14 11:18:07;;;;;;;6.25;1.40;;;26.40;99.90;;;26.18;72.59;100123.41;5250505;22;20002;-75
2022/09/14 11:20:36;;;;;;;4.97;1.80;;;26.60;99.90;;;26.33;72.52;100098.22;5250160;22;20003;-75
2022/09/14 11:23:01;;;;;;;2.35;1.25;;;26.90;99.90;;;26.60;70.23;100103.28;5250215;22;20023;-74
2022/09/14 11:25:39;;;;;;;4.30;1.25;;;27.20;99.90;;;26.92;68.51;100099.09;5222605;22;20405;-75
2022/09/14 11:27:46;;;;;;;4.30;1.55;;;27.40;99.90;;;27.28;68.64;100107.81;5250100;22;19999;-75
2022/09/14 11:30:19;;;;;;;3.00;1.20;;;27.90;99.90;;;27.34;66.53;100086.91;5250322;22;20003;-75
2022/09/14 11:32:46;;;;;;;4.30;1.73;;;28.10;99.90;;;26.88;65.97;100100.72;5248739;22;20006;-74
2022/09/14 11:35:04;;;;;;;5.68;1.40;;;28.00;99.90;;;26.60;68.29;100095.16;5249031;22;20003;-74
2022/09/14 11:37:20;;;;;;;3.92;1.55;;;27.70;99.90;;;26.89;67.13;100093.41;5250118;22;19999;-74
2022/09/14 11:40:08;;;;;;;3.80;1.15;;;27.80;99.90;;;27.27;65.29;100117.00;5250266;22;20434;-74
2022/09/14 11:42:32;;;;;;;6.22;1.92;;;27.90;99.90;;;26.97;64.82;100092.81;5250007;22;20423;-75
2022/09/14 11:44:43;;;;;;;3.47;1.40;;;27.90;99.90;;;26.47;66.94;100093.03;5248971;22;20003;-75
2022/09/14 11:47:18;;;;;;;4.32;1.40;;;27.80;99.90;;;26.68;67.00;100102.69;5223352;22;20007;-75
2022/09/14 11:49:54;;;;;;;4.68;1.27;;;27.70;99.90;;;26.93;66.35;100108.03;5225418;22;20014;-75
2022/09/14 11:52:22;;;;;;;75.55;68.97;;;27.70;99.90;;;27.05;66.92;100115.81;5207560;22;20300;-75
2022/09/14 11:54:23;;;;;;;9.55;8.75;;;27.70;99.90;;;27.00;66.69;100121.25;5249208;22;20056;-74
2022/09/14 11:56:31;;;;;;;5.65;1.75;;;27.80;99.90;;;26.71;67.53;100094.81;5248553;22;20006;-75
2022/09/14 11:58:32;;;;;;;3.00;1.63;;;27.80;99.90;;;27.06;66.66;100107.38;5247824;22;20346;-74
2022/09/14 12:01:21;;;;;;;3.88;1.33;;;27.80;99.90;;;26.88;67.12;100121.59;5222265;22;20000;-75
2022/09/14 12:03:42;;;;;;;5.50;1.50;;;27.70;99.90;;;26.57;69.48;100107.34;5177862;22;20075;-75
2022/09/14 12:05:45;;;;;;;3.25;1.42;;;27.50;99.90;;;26.69;69.08;100110.53;5226547;22;20054;-75
2022/09/14 12:07:46;;;;;;;3.88;1.67;;;27.50;99.90;;;26.78;67.95;100124.31;5248507;22;20454;-75
2022/09/14 12:09:48;;;;;;;5.15;1.52;;;27.40;99.90;;;26.88;66.52;100102.66;5249951;22;20028;-75
2022/09/14 12:11:57;;;;;;;4.82;1.75;;;27.50;99.90;;;26.90;66.34;100106.69;5248537;22;20006;-75
2022/09/14 12:14:26;;;;;;;2.95;1.67;;;27.50;99.90;;;26.62;68.03;100128.13;5248082;22;20027;-74
2022/09/14 12:16:27;;;;;;;4.25;1.60;;;27.50;99.90;;;26.36;69.20;100108.50;5248157;22;20064;-75
2022/09/14 12:18:28;;;;;;;3.80;1.30;;;27.40;99.90;;;25.98;70.89;100106.38;5250275;22;20062;-74
2022/09/14 12:20:51;;;;;;;3.47;1.63;;;27.20;99.90;;;26.32;71.21;100110.94;5248371;22;20002;-75
2022/09/14 12:23:04;;;;;;;4.03;1.60;;;27.10;99.90;;;26.34;69.35;100103.34;5248713;22;20025;-75
2022/09/14 12:25:07;;;;;;;4.65;1.65;;;27.10;99.90;;;26.21;71.46;100122.84;5248451;22;20221;-75
2022/09/14 12:27:20;;;;;;;;;;;27.10;99.90;;;26.09;71.69;100129.59;5250613;22;20438;-75
2022/09/14 12:29:32;;;;;;;5.95;1.48;;;26.90;99.90;;;26.21;70.15;100111.22;5248070;22;19902;-75
2022/09/14 12:32:03;;;;;;;3.03;1.70;;;26.80;99.90;;;26.44;69.23;100109.81;5248318;22;20466;-75
2022/09/14 12:34:23;;;;;;;5.95;1.40;;;26.90;99.90;;;26.49;68.47;100126.84;5246421;22;20010;-75
2022/09/14 12:36:36;;;;;;;3.75;1.80;;;27.00;99.90;;;26.42;68.99;100133.63;5250214;22;20059;-74
2022/09/14 12:38:37;;;;;;;5.97;2.00;;;27.00;99.90;;;26.33;69.34;100128.78;5268737;22;20006;-74
2022/09/14 12:40:38;;;;;;;3.97;1.55;;;27.00;99.90;;;26.22;68.47;100135.28;5248795;22;20015;-75
2022/09/14 12:42:39;;;;;;;5.72;2.08;;;26.90;99.90;;;26.25;69.28;100123.13;5247962;22;20003;-74
2022/09/14 12:44:42;;;;;;;4.13;1.98;;;26.80;99.90;;;26.09;68.62;100113.38;5275719;22;20009;-75
2022/09/14 12:46:43;;;;;;;4.35;2.00;;;26.90;99.90;;;26.11;68.81;100106.63;5222570;22;20061;-75
2022/09/14 12:48:46;;;;;;;3.92;1.77;;;26.80;99.90;;;26.23;68.96;100130.69;5222607;22;20075;-74
2022/09/14 12:50:51;;;;;;;;;;;26.70;99.90;;;25.96;70.36;100114.75;5249648;22;20319;-75
2022/09/14 12:52:58;;;;;;;2.83;1.50;;;26.70;99.90;;;25.90;71.68;100110.44;5248772;22;19977;-75
2022/09/14 12:55:30;;;;;;;5.97;1.75;;;26.70;99.90;;;26.01;71.83;100122.06;5222465;22;20424;-75
2022/09/14 12:57:58;;;;;;;4.47;1.70;;;26.70;99.90;;;25.92;70.47;100127.19;5250646;22;20006;-74
2022/09/14 13:00:15;;;;;;;3.67;2.08;;;26.70;99.90;;;25.49;72.15;100106.94;5223974;22;20003;-74
2022/09/14 13:03:21;;;;;;;5.00;2.00;;;26.40;99.90;;;25.27;73.31;100112.53;5223153;22;20011;-74
2022/09/14 13:05:31;;;;;;;5.25;1.80;;;26.20;99.90;;;25.18;74.02;100110.63;5145590;23;20008;-75
2022/09/14 13:07:35;;;;;;;8.63;2.65;;;26.00;99.90;;;24.95;74.63;100106.53;5145635;23;20021;-74
2022/09/14 13:09:36;;;;;;;6.10;2.28;;;25.90;99.90;;;24.61;76.71;100097.22;5133551;22;20016;-74
2022/09/14 13:11:40;;;;;;;7.50;2.08;;;25.60;99.90;;;24.67;77.72;100109.66;5222047;22;20038;-74
2022/09/14 13:13:41;;;;;;;;;;;25.50;99.90;;;24.34;80.32;100107.31;5248430;22;20010;-74
2022/09/14 13:15:59;;;;;;;7.78;2.35;;;25.40;99.90;;;24.45;80.49;100117.09;5248359;22;20305;-74
2022/09/14 13:18:18;;;;;;;6.45;2.72;;;25.20;99.90;;;24.37;81.45;100114.91;5275823;22;20006;-74
2022/09/14 13:20:20;;;;;;;8.55;2.33;;;25.20;99.90;;;24.37;81.29;100107.59;5251332;22;20331;-74
2022/09/14 13:22:25;;;;;;;4.05;2.58;;;25.10;99.90;;;24.36;81.83;100115.94;5275851;22;20002;-74
2022/09/14 13:24:30;;;;;;;8.68;2.33;;;25.00;99.90;;;24.50;80.55;100125.19;5248412;22;19999;-74
2022/09/14 13:26:33;;;;;;;6.03;2.60;;;25.10;99.90;;;24.48;80.82;100098.50;5248477;22;20010;-74
2022/09/14 13:28:34;;;;;;;7.35;2.70;;;25.10;99.90;;;24.72;79.73;100104.25;5248624;22;19999;-74
2022/09/14 13:30:35;;;;;;;5.35;2.58;;;25.30;99.90;;;24.78;80.59;100097.81;5277700;22;20002;-75
2022/09/14 13:32:45;;;;;;;6.20;2.10;;;25.30;99.90;;;24.93;79.53;100114.09;5249484;22;20014;-74
2022/09/14 13:34:46;;;;;;;5.50;2.03;;;25.40;99.90;;;25.03;78.92;100092.50;5276258;22;20006;-75
2022/09/14 13:36:48;;;;;;;8.05;3.15;;;25.60;99.90;;;25.22;79.26;100088.25;5249705;22;20025;-74
2022/09/14 13:38:50;;;;;;;5.90;2.42;;;25.80;99.90;;;25.24;77.77;100091.47;5277042;22;20011;-74
2022/09/14 13:40:55;;;;;;;6.47;2.38;;;26.00;99.90;;;25.17;78.19;100099.03;5249686;22;20013;-74
2022/09/14 13:42:58;;;;;;;5.32;2.50;;;25.90;99.90;;;24.98;78.98;100097.91;5276781;22;20008;-74
2022/09/14 13:44:59;;;;;;;5.43;2.30;;;25.90;99.90;;;25.22;78.56;100109.03;5249617;22;20011;-75
2022/09/14 13:47:04;;;;;;;4.65;2.15;;;25.90;99.90;;;25.44;76.66;100098.81;5277114;22;20028;-75
2022/09/14 13:49:06;;;;;;;3.92;2.08;;;26.00;99.90;;;25.47;74.88;100100.16;5249546;22;20003;-74
2022/09/14 13:51:11;;;;;;;5.90;2.30;;;26.20;99.90;;;25.46;74.91;100093.13;5223401;22;20011;-75
2022/09/14 13:53:37;;;;;;;6.03;2.08;;;26.20;99.90;;;25.43;75.50;100109.84;5249602;22;20006;-74
2022/09/14 13:55:38;;;;;;;6.70;2.05;;;26.10;99.90;;;24.96;77.43;100118.94;5277345;22;20498;-74
2022/09/14 13:57:39;;;;;;;4.55;1.73;;;25.90;99.90;;;24.67;76.10;100086.16;5249088;22;20014;-74
2022/09/14 14:00:18;;;;;;;5.90;2.03;;;25.70;99.90;;;24.81;75.32;100102.72;5276982;22;20028;-74
2022/09/14 14:02:19;;;;;;;11.02;2.22;;;25.60;99.90;;;24.97;75.28;100104.38;5249726;22;20031;-75
2022/09/14 14:04:28;;;;;;;4.93;2.08;;;25.60;99.90;;;24.74;75.48;100075.13;5249285;22;20002;-74
2022/09/14 14:06:33;;;;;;;4.43;1.95;;;25.60;99.90;;;24.89;76.93;100079.78;5249776;22;20006;-74
2022/09/14 14:08:37;;;;;;;5.60;1.80;;;25.70;99.90;;;25.16;75.97;100104.69;5249798;22;20362;-74
2022/09/14 14:10:44;;;;;;;5.70;1.98;;;25.80;99.90;;;25.13;75.00;100094.41;5249251;22;20006;-74
2022/09/14 14:12:45;;;;;;;6.80;2.45;;;25.80;99.90;;;25.41;74.48;100104.75;5276431;22;20003;-74
2022/09/14 14:15:06;;;;;;;3.88;1.90;;;25.90;99.90;;;25.51;72.96;100093.97;5276911;22;20009;-74
2022/09/14 14:17:29;;;;;;;6.63;2.20;;;26.10;99.90;;;25.65;72.93;100089.66;5250929;22;20003;-75
2022/09/14 14:19:30;;;;;;;5.43;2.05;;;26.20;99.90;;;25.68;72.05;100091.00;5277086;22;20486;-74
2022/09/14 14:21:32;;;;;;;3.22;1.52;;;26.30;99.90;;;25.89;72.77;100097.19;5276925;22;20025;-75